createdAt,value
2019-01-08T00:02:37.159Z,100239.88
2019-01-08T00:05:24.890Z,100242.62
2019-01-08T00:10:40.808Z,100234.77
2019-01-08T00:13:28.534Z,100237.22
2019-01-08T00:16:16.361Z,100235.13
2019-01-08T00:19:04.222Z,100231.84
2019-01-08T00:21:32.697Z,100231.88
2019-01-08T00:24:01.181Z,100221.84
2019-01-08T00:26:48.786Z,100225.24
2019-01-08T00:29:29.076Z,100217.34
2019-01-08T00:31:47.477Z,100213.22
2019-01-08T00:34:15.976Z,100212.38
2019-01-08T00:37:03.693Z,100207.30
2019-01-08T00:39:32.176Z,100207.95
2019-01-08T00:42:19.906Z,100212.05
2019-01-08T00:44:48.396Z,100200.91
2019-01-08T00:47:16.870Z,100199.94
2019-01-08T00:52:19.298Z,100189.13
2019-01-08T00:55:07.126Z,100194.61
2019-01-08T01:05:31.043Z,100178.58
2019-01-08T01:08:18.767Z,100179.82
2019-01-08T01:10:47.255Z,100175.21
2019-01-08T01:13:34.975Z,100162.84
2019-01-08T01:16:03.467Z,100165.47
2019-01-08T01:18:31.942Z,100160.14
2019-01-08T01:21:19.571Z,100155.22
2019-01-08T01:23:48.051Z,100146.48
2019-01-08T01:26:35.657Z,100149.70
2019-01-08T01:29:23.476Z,100137.91
2019-01-08T01:34:45.101Z,100134.27
2019-01-08T01:37:13.595Z,100135.21
2019-01-08T01:39:42.116Z,100139.34
2019-01-08T01:42:10.602Z,100129.45
2019-01-08T01:44:39.073Z,100122.25
2019-01-08T01:47:07.559Z,100113.20
2019-01-08T01:49:36.326Z,100103.64
2019-01-08T01:52:23.932Z,100105.84
2019-01-08T01:55:11.608Z,100099.27
2019-01-08T01:57:40.097Z,100076.97
2019-01-08T02:00:48.493Z,100074.45
2019-01-08T02:03:16.964Z,100068.43
2019-01-08T02:05:45.451Z,100068.17
2019-01-08T02:08:33.173Z,100064.78
2019-01-08T02:11:01.667Z,100058.66
2019-01-08T02:13:30.143Z,100050.48
2019-01-08T02:15:58.634Z,100049.06
2019-01-08T02:18:27.105Z,100040.47
2019-01-08T02:20:55.584Z,100036.08
2019-01-08T02:26:17.809Z,100025.84
2019-01-08T02:28:46.290Z,100020.03
2019-01-08T02:31:14.775Z,100010.05
2019-01-08T02:33:43.247Z,100007.27
2019-01-08T02:36:30.977Z,100005.84
2019-01-08T02:38:59.451Z,99998.63
2019-01-08T02:41:28.071Z,99992.06
2019-01-08T02:43:58.155Z,99994.50
2019-01-08T02:46:45.979Z,99983.53
2019-01-08T02:49:16.035Z,99978.32
2019-01-08T02:51:44.518Z,99973.22
2019-01-08T02:54:13.019Z,99970.59
2019-01-08T02:56:41.494Z,99962.46
2019-01-08T02:59:29.083Z,99950.94
2019-01-08T03:01:57.568Z,99947.39
2019-01-08T03:04:26.038Z,99935.20
2019-01-08T03:06:54.511Z,99944.01
2019-01-08T03:09:42.353Z,99932.01
2019-01-08T03:12:10.853Z,99915.81
2019-01-08T03:14:39.322Z,99911.80
2019-01-08T03:17:07.796Z,99909.03
2019-01-08T03:19:55.525Z,99905.83
2019-01-08T03:22:24.005Z,99901.30
2019-01-08T03:24:52.479Z,99906.55
2019-01-08T03:27:40.205Z,99886.73
2019-01-08T03:30:48.594Z,99886.55
2019-01-08T03:33:36.323Z,99876.20
2019-01-08T03:36:04.797Z,99865.31
2019-01-08T03:38:33.280Z,99859.92
2019-01-08T03:41:01.757Z,99853.37
2019-01-08T03:43:49.349Z,99845.23
2019-01-08T03:46:36.946Z,99832.52
2019-01-08T03:49:05.429Z,99826.71
2019-01-08T03:51:33.902Z,99823.17
2019-01-08T03:54:14.916Z,99817.87
2019-01-08T03:56:43.389Z,99811.13
2019-01-08T03:59:11.868Z,99802.69
2019-01-08T04:01:59.691Z,99782.48
2019-01-08T04:07:21.751Z,99782.56
2019-01-08T04:10:09.479Z,99765.97
2019-01-08T04:12:37.949Z,99775.98
2019-01-08T04:18:07.133Z,99755.73
2019-01-08T04:20:35.602Z,99745.65
2019-01-08T04:23:23.206Z,99733.45
2019-01-08T04:25:51.677Z,99728.26
2019-01-08T04:28:39.276Z,99713.18
2019-01-08T04:31:07.749Z,99713.39
2019-01-08T04:33:36.234Z,99710.64
2019-01-08T04:36:23.817Z,99706.78
2019-01-08T04:38:52.301Z,99699.42
2019-01-08T04:41:39.892Z,99696.70
2019-01-08T04:44:08.373Z,99686.20
2019-01-08T04:46:56.124Z,99683.58
2019-01-08T04:49:24.579Z,99676.66
2019-01-08T04:51:53.052Z,99665.80
2019-01-08T04:54:41.169Z,99666.37
2019-01-08T04:57:09.641Z,99653.89
2019-01-08T04:59:59.010Z,99646.42
2019-01-08T05:02:27.443Z,99638.63
2019-01-08T05:04:55.930Z,99642.09
2019-01-08T05:10:31.180Z,99632.92
2019-01-08T05:12:59.651Z,99630.20
2019-01-08T05:15:47.251Z,99631.15
2019-01-08T05:18:15.719Z,99620.02
2019-01-08T05:21:03.459Z,99615.16
2019-01-08T05:23:51.186Z,99607.19
2019-01-08T05:26:19.667Z,99585.85
2019-01-08T05:28:48.179Z,99588.66
2019-01-08T05:34:10.335Z,99581.37
2019-01-08T05:36:38.926Z,99573.31
2019-01-08T05:39:26.711Z,99570.14
2019-01-08T05:41:55.439Z,99557.30
2019-01-08T05:44:23.971Z,99555.16
2019-01-08T05:46:52.543Z,99563.02
2019-01-08T05:50:00.935Z,99558.59
2019-01-08T05:52:42.032Z,99548.04
2019-01-08T05:55:10.530Z,99543.64
2019-01-08T06:00:45.854Z,99534.19
2019-01-08T06:03:14.314Z,99522.47
2019-01-08T06:05:42.951Z,99529.78
2019-01-08T06:08:30.782Z,99528.47
2019-01-08T06:10:59.301Z,99519.19
2019-01-08T06:13:27.807Z,99515.09
2019-01-08T06:16:15.476Z,99512.91
2019-01-08T06:18:44.004Z,99507.78
2019-01-08T06:21:12.567Z,99500.75
2019-01-08T06:24:00.195Z,99497.66
2019-01-08T06:26:28.689Z,99489.16
2019-01-08T06:28:57.182Z,99481.65
2019-01-08T06:31:44.915Z,99486.33
2019-01-08T06:37:00.857Z,99487.01
2019-01-08T06:39:29.332Z,99478.39
2019-01-08T06:41:57.814Z,99481.38
2019-01-08T06:44:45.627Z,99474.94
2019-01-08T06:47:33.231Z,99469.22
2019-01-08T06:50:01.742Z,99467.08
2019-01-08T06:52:49.478Z,99463.42
2019-01-08T06:55:37.210Z,99464.62
2019-01-08T06:58:05.690Z,99469.97
2019-01-08T07:00:34.169Z,99481.94
2019-01-08T07:03:22.000Z,99460.13
2019-01-08T07:06:09.823Z,99445.80
2019-01-08T07:08:38.297Z,99449.56
2019-01-08T07:11:26.024Z,99434.95
2019-01-08T07:13:54.504Z,99436.62
2019-01-08T07:16:22.972Z,99436.00
2019-01-08T07:19:10.561Z,99434.97
2019-01-08T07:21:39.054Z,99443.01
2019-01-08T07:26:54.967Z,99410.82
2019-01-08T07:29:23.438Z,99423.25
2019-01-08T07:32:11.037Z,99414.63
2019-01-08T07:34:39.506Z,99403.30
2019-01-08T07:37:07.989Z,99403.31
2019-01-08T07:39:55.585Z,99404.27
2019-01-08T07:42:43.176Z,99404.06
2019-01-08T07:45:11.648Z,99386.34
2019-01-08T07:47:40.130Z,99390.56
2019-01-08T07:50:48.513Z,99390.39
2019-01-08T07:56:10.723Z,99379.92
2019-01-08T07:58:39.202Z,99366.25
2019-01-08T08:01:26.926Z,99364.36
2019-01-08T08:04:14.525Z,99351.98
2019-01-08T08:07:02.244Z,99362.39
2019-01-08T08:09:49.972Z,99356.87
2019-01-08T08:12:37.575Z,99335.35
2019-01-08T08:15:45.966Z,99335.08
2019-01-08T08:18:14.446Z,99333.95
2019-01-08T08:20:42.917Z,99331.89
2019-01-08T08:25:45.696Z,99326.04
2019-01-08T08:28:33.298Z,99332.39
2019-01-08T08:31:01.775Z,99323.42
2019-01-08T08:33:49.512Z,99320.20
2019-01-08T08:36:37.344Z,99314.97
2019-01-08T08:39:45.730Z,99322.25
2019-01-08T08:42:14.206Z,99310.67
2019-01-08T08:45:01.940Z,99317.59
2019-01-08T08:47:30.413Z,99325.91
2019-01-08T08:52:33.136Z,99339.97
2019-01-08T08:55:01.613Z,99333.14
2019-01-08T08:57:30.085Z,99341.14
2019-01-08T09:00:17.817Z,99346.74
2019-01-08T09:02:46.296Z,99342.59
2019-01-08T09:05:33.906Z,99352.29
2019-01-08T09:08:21.728Z,99349.20
2019-01-08T09:10:50.207Z,99360.87
2019-01-08T09:13:37.941Z,99341.69
2019-01-08T09:16:06.417Z,99347.90
2019-01-08T09:21:08.504Z,99362.45
2019-01-08T09:23:56.217Z,99363.53
2019-01-08T09:26:43.915Z,99367.92
2019-01-08T09:29:12.396Z,99374.91
2019-01-08T09:31:59.986Z,99361.94
2019-01-08T09:34:47.730Z,99370.83
2019-01-08T09:37:35.318Z,99376.13
2019-01-08T09:42:58.350Z,99379.26
2019-01-08T09:45:26.828Z,99375.70
2019-01-08T09:47:55.296Z,99377.25
2019-01-08T09:50:23.776Z,99354.47
2019-01-08T09:52:52.253Z,99365.98
2019-01-08T09:55:20.734Z,99370.41
2019-01-08T09:58:08.555Z,99359.50
2019-01-08T10:00:56.156Z,99360.03
2019-01-08T10:03:43.873Z,99370.53
2019-01-08T10:06:12.355Z,99358.90
2019-01-08T10:09:00.104Z,99377.41
2019-01-08T10:11:47.825Z,99374.39
2019-01-08T10:14:35.555Z,99386.38
2019-01-08T10:20:10.825Z,99377.36
2019-01-08T10:22:39.296Z,99389.44
2019-01-08T10:25:47.694Z,99383.53
2019-01-08T10:31:22.862Z,99381.33
2019-01-08T10:33:51.337Z,99378.07
2019-01-08T10:36:38.937Z,99382.92
2019-01-08T10:39:47.333Z,99383.45
2019-01-08T10:42:15.810Z,99381.34
2019-01-08T10:44:44.288Z,99369.67
2019-01-08T10:47:12.758Z,99361.08
2019-01-08T10:49:41.240Z,99356.53
2019-01-08T10:52:28.961Z,99358.33
2019-01-08T10:55:37.352Z,99364.06
2019-01-08T10:58:24.975Z,99370.36
2019-01-08T11:01:12.707Z,99373.64
2019-01-08T11:03:41.185Z,99385.28
2019-01-08T11:06:28.781Z,99409.38
2019-01-08T11:09:16.374Z,99396.78
2019-01-08T11:14:58.355Z,99398.34
2019-01-08T11:17:26.838Z,99388.17
2019-01-08T11:20:35.235Z,99401.30
2019-01-08T11:23:03.713Z,99396.47
2019-01-08T11:25:32.197Z,99391.01
2019-01-08T11:28:19.789Z,99403.71
2019-01-08T11:31:07.392Z,99394.53
2019-01-08T11:33:54.988Z,99392.59
2019-01-08T11:36:42.588Z,99394.91
2019-01-08T11:39:11.055Z,99386.67
2019-01-08T11:41:58.786Z,99398.93
2019-01-08T11:44:27.256Z,99392.81
2019-01-08T11:47:15.076Z,99395.86
2019-01-08T11:49:43.555Z,99387.24
2019-01-08T11:52:31.158Z,99391.39
2019-01-08T11:55:18.877Z,99385.04
2019-01-08T11:58:06.478Z,99383.73
2019-01-08T12:00:54.083Z,99380.06
2019-01-08T12:03:22.554Z,99400.13
2019-01-08T12:06:10.154Z,99393.69
2019-01-08T12:08:57.877Z,99392.65
2019-01-08T12:11:45.609Z,99399.03
2019-01-08T12:14:14.107Z,99396.07
2019-01-08T12:17:01.726Z,99388.00
2019-01-08T12:19:49.538Z,99393.42
2019-01-08T12:22:18.026Z,99387.94
2019-01-08T12:25:05.624Z,99390.74
2019-01-08T12:27:53.220Z,99396.59
2019-01-08T12:30:40.815Z,99397.36
2019-01-08T12:33:09.299Z,99400.75
2019-01-08T12:35:56.909Z,99396.59
2019-01-08T12:38:25.413Z,99380.09
2019-01-08T12:40:53.899Z,99372.77
2019-01-08T12:43:22.397Z,99377.47
2019-01-08T12:45:50.878Z,99368.88
2019-01-08T12:48:19.359Z,99375.77
2019-01-08T12:51:07.184Z,99392.80
2019-01-08T12:53:54.791Z,99390.20
2019-01-08T12:56:23.275Z,99401.03
2019-01-08T13:01:26.011Z,99384.21
2019-01-08T13:03:54.502Z,99381.01
2019-01-08T13:06:22.995Z,99383.07
2019-01-08T13:08:51.486Z,99389.72
2019-01-08T13:14:07.401Z,99381.64
2019-01-08T13:16:55.064Z,99377.84
2019-01-08T13:19:23.559Z,99378.39
2019-01-08T13:21:52.034Z,99381.01
2019-01-08T13:24:20.545Z,99386.94
2019-01-08T13:29:55.813Z,99375.80
2019-01-08T13:32:43.599Z,99365.30
2019-01-08T13:35:31.201Z,99367.11
2019-01-08T13:38:19.037Z,99367.17
2019-01-08T13:40:47.511Z,99380.77
2019-01-08T13:43:16.324Z,99369.71
2019-01-08T13:45:44.797Z,99375.63
2019-01-08T13:48:13.379Z,99369.37
2019-01-08T13:50:41.853Z,99364.45
2019-01-08T13:53:22.596Z,99370.13
2019-01-08T13:58:38.558Z,99350.96
2019-01-08T14:01:26.379Z,99359.97
2019-01-08T14:04:14.110Z,99358.11
2019-01-08T14:09:50.674Z,99373.72
2019-01-08T14:12:19.149Z,99374.20
2019-01-08T14:14:47.632Z,99380.26
2019-01-08T14:23:51.143Z,99382.63
2019-01-08T14:26:38.631Z,99393.30
2019-01-08T14:29:07.056Z,99380.48
2019-01-08T14:31:54.566Z,99395.28
2019-01-08T14:37:01.631Z,99391.55
2019-01-08T14:39:30.078Z,99392.03
2019-01-08T14:44:45.926Z,99392.59
2019-01-08T14:47:14.330Z,99386.95
2019-01-08T14:49:42.745Z,99390.40
2019-01-08T14:52:11.118Z,99400.33
2019-01-08T14:54:39.496Z,99397.14
2019-01-08T14:57:27.003Z,99405.77
2019-01-08T15:02:29.369Z,99416.80
2019-01-08T15:04:58.057Z,99423.83
2019-01-08T15:07:27.859Z,99428.32
2019-01-08T15:09:56.245Z,99430.30
2019-01-08T15:12:24.632Z,99429.55
2019-01-08T15:15:12.884Z,99431.50
2019-01-08T15:20:30.115Z,99440.94
2019-01-08T15:25:45.986Z,99445.62
2019-01-08T15:28:14.457Z,99447.69
2019-01-08T15:30:42.923Z,99459.39
2019-01-08T15:33:11.308Z,99461.75
2019-01-08T15:35:39.689Z,99465.84
2019-01-08T15:38:27.309Z,99462.58
2019-01-08T15:40:55.769Z,99466.41
2019-01-08T15:43:24.212Z,99472.20
2019-01-08T15:46:32.558Z,99475.97
2019-01-08T15:49:00.973Z,99479.24
2019-01-08T15:51:48.536Z,99475.40
2019-01-08T15:54:16.914Z,99467.14
2019-01-08T15:57:04.415Z,99490.45
2019-01-08T15:59:51.909Z,99485.86
2019-01-08T16:02:20.278Z,99495.98
2019-01-08T16:05:08.068Z,99492.14
2019-01-08T16:10:23.883Z,99511.61
2019-01-08T16:12:52.267Z,99513.09
2019-01-08T16:15:20.661Z,99515.45
2019-01-08T16:18:28.954Z,99533.42
2019-01-08T16:21:16.474Z,99542.22
2019-01-08T16:23:44.868Z,99535.73
2019-01-08T16:26:32.520Z,99541.70
2019-01-08T16:29:00.945Z,99538.66
2019-01-08T16:31:48.444Z,99545.47
2019-01-08T16:34:16.822Z,99544.91
2019-01-08T16:36:45.301Z,99553.09
2019-01-08T16:39:13.662Z,99551.81
2019-01-08T16:42:01.337Z,99554.29
2019-01-08T16:44:29.735Z,99565.73
2019-01-08T16:47:17.390Z,99559.12
2019-01-08T16:52:34.838Z,99577.41
2019-01-08T17:00:45.243Z,99588.54
2019-01-08T17:03:13.618Z,99590.50
2019-01-08T17:05:41.984Z,99600.21
2019-01-08T17:08:10.360Z,99598.02
2019-01-08T17:10:38.766Z,99607.59
2019-01-08T17:13:07.150Z,99615.80
2019-01-08T17:15:35.528Z,99611.36
2019-01-08T17:18:03.904Z,99605.50
2019-01-08T17:23:19.712Z,99618.44
2019-01-08T17:25:48.348Z,99611.26
2019-01-08T17:28:18.184Z,99613.95
2019-01-08T17:30:46.560Z,99616.62
2019-01-08T17:33:14.937Z,99617.45
2019-01-08T17:35:43.301Z,99620.02
2019-01-08T17:38:11.698Z,99621.72
2019-01-08T17:40:40.097Z,99623.22
2019-01-08T17:43:08.476Z,99623.52
2019-01-08T17:45:36.846Z,99622.61
2019-01-08T17:48:24.345Z,99625.84
2019-01-08T17:50:52.730Z,99635.64
2019-01-08T17:53:21.107Z,99627.42
2019-01-08T17:55:49.468Z,99629.81
2019-01-08T17:58:56.601Z,99634.21
2019-01-08T18:01:44.090Z,99637.96
2019-01-08T18:09:20.853Z,99648.55
2019-01-08T18:12:08.467Z,99660.36
2019-01-08T18:15:16.766Z,99663.69
2019-01-08T18:18:04.399Z,99655.34
2019-01-08T18:20:51.937Z,99663.58
2019-01-08T18:25:54.296Z,99670.06
2019-01-08T18:28:22.680Z,99664.27
2019-01-08T18:31:10.378Z,99663.44
2019-01-08T18:33:38.798Z,99668.42
2019-01-08T18:36:07.195Z,99656.58
2019-01-08T18:38:54.955Z,99660.73
2019-01-08T18:44:10.767Z,99659.52
2019-01-08T18:46:39.322Z,99655.75
2019-01-08T18:49:07.972Z,99659.37
2019-01-08T18:51:37.903Z,99659.66
2019-01-08T18:54:25.527Z,99663.36
2019-01-08T18:56:53.899Z,99660.43
2019-01-08T18:59:41.589Z,99653.49
2019-01-08T19:02:29.269Z,99669.58
2019-01-08T19:07:31.834Z,99673.80
2019-01-08T19:10:40.200Z,99683.05
2019-01-08T19:13:08.565Z,99673.42
2019-01-08T19:15:36.940Z,99678.20
2019-01-08T19:18:05.306Z,99684.26
2019-01-08T19:20:33.687Z,99682.44
2019-01-08T19:23:02.053Z,99680.89
2019-01-08T19:25:49.771Z,99682.11
2019-01-08T19:28:18.195Z,99698.77
2019-01-08T19:30:46.570Z,99687.95
2019-01-08T19:36:02.416Z,99694.02
2019-01-08T19:39:10.705Z,99697.87
2019-01-08T19:41:39.077Z,99701.25
2019-01-08T19:44:07.486Z,99702.77
2019-01-08T19:46:55.210Z,99706.61
2019-01-08T19:49:23.589Z,99703.56
2019-01-08T19:52:11.229Z,99706.31
2019-01-08T19:54:39.614Z,99702.95
2019-01-08T19:57:27.228Z,99699.01
2019-01-08T19:59:55.612Z,99704.55
2019-01-08T20:02:43.240Z,99707.23
2019-01-08T20:05:11.716Z,99710.52
2019-01-08T20:07:40.088Z,99714.06
2019-01-08T20:10:08.532Z,99711.31
2019-01-08T20:18:17.633Z,99718.06
2019-01-08T20:20:46.023Z,99707.55
2019-01-08T20:26:03.476Z,99709.55
2019-01-08T20:28:51.089Z,99714.72
2019-01-08T20:31:19.466Z,99724.25
2019-01-08T20:33:47.856Z,99723.38
2019-01-08T20:36:35.574Z,99725.16
2019-01-08T20:42:12.025Z,99737.85
2019-01-08T20:44:59.750Z,99728.86
2019-01-08T20:47:28.149Z,99742.77
2019-01-08T20:49:56.565Z,99743.67
2019-01-08T20:52:24.971Z,99743.38
2019-01-08T20:55:12.795Z,99740.77
2019-01-08T20:58:00.433Z,99737.54
2019-01-08T21:00:48.056Z,99749.00
2019-01-08T21:03:16.428Z,99744.27
2019-01-08T21:05:44.819Z,99738.73
2019-01-08T21:08:32.528Z,99757.27
2019-01-08T21:14:15.084Z,99752.52
2019-01-08T21:16:45.840Z,99763.96
2019-01-08T21:22:01.036Z,99767.36
2019-01-08T21:24:29.413Z,99773.64
2019-01-08T21:27:17.133Z,99778.39
2019-01-08T21:32:52.242Z,99779.80
2019-01-08T21:35:20.609Z,99785.95
2019-01-08T21:38:08.278Z,99784.96
2019-01-08T21:40:55.892Z,99793.33
2019-01-08T21:43:24.258Z,99792.55
2019-01-08T21:48:40.152Z,99799.77
2019-01-08T21:51:08.597Z,99807.85
2019-01-08T21:53:56.087Z,99798.09
2019-01-08T21:56:43.592Z,99797.56
2019-01-08T21:59:31.086Z,99809.00
2019-01-08T22:05:13.357Z,99810.00
2019-01-08T22:08:21.657Z,99803.87
2019-01-08T22:11:09.189Z,99809.78
2019-01-08T22:13:37.564Z,99806.42
2019-01-08T22:16:25.068Z,99808.34
2019-01-08T22:19:33.383Z,99812.27
2019-01-08T22:22:02.035Z,99808.03
2019-01-08T22:24:30.418Z,99818.33
2019-01-08T22:26:58.811Z,99811.17
2019-01-08T22:29:27.171Z,99799.19
2019-01-08T22:32:14.718Z,99822.04
2019-01-08T22:35:02.879Z,99804.26
2019-01-08T22:37:32.420Z,99809.73
2019-01-08T22:42:49.883Z,99813.95
2019-01-08T22:45:18.256Z,99807.02
2019-01-08T22:47:46.749Z,99810.34
2019-01-08T22:50:34.410Z,99804.95
2019-01-08T22:53:22.079Z,99798.77
2019-01-08T22:56:09.724Z,99808.78
2019-01-08T22:58:38.257Z,99804.93
2019-01-08T23:04:54.692Z,99818.37
2019-01-08T23:09:57.729Z,99806.91
2019-01-08T23:12:45.518Z,99802.33
2019-01-08T23:15:53.840Z,99804.27
2019-01-08T23:18:41.784Z,99803.38
2019-01-08T23:21:29.444Z,99812.78
2019-01-08T23:23:57.833Z,99803.21
2019-01-08T23:26:26.211Z,99810.78
2019-01-08T23:29:13.748Z,99804.98
2019-01-08T23:31:42.166Z,99808.76
2019-01-08T23:34:10.684Z,99816.22
2019-01-08T23:36:58.489Z,99808.29
2019-01-08T23:39:46.128Z,99817.94
2019-01-08T23:42:14.644Z,99814.55
2019-01-08T23:44:43.023Z,99816.11
2019-01-08T23:47:11.416Z,99824.06
2019-01-08T23:49:58.927Z,99827.40
2019-01-08T23:53:07.214Z,99827.55
2019-01-08T23:56:15.534Z,99827.86
2019-01-08T23:58:43.919Z,99823.86
